createdAt,value
2018-05-08T00:01:37.065Z,97.60
2018-05-08T00:04:05.606Z,97.60
2018-05-08T00:06:34.166Z,97.90
2018-05-08T00:09:03.151Z,98.20
2018-05-08T00:11:31.607Z,98.00
2018-05-08T00:14:00.105Z,98.40
2018-05-08T00:16:28.527Z,97.60
2018-05-08T00:18:57.893Z,97.90
2018-05-08T00:21:26.391Z,98.00
2018-05-08T00:23:54.882Z,98.20
2018-05-08T00:26:23.621Z,99.40
2018-05-08T00:28:52.314Z,99.80
2018-05-08T00:31:20.835Z,99.90
2018-05-08T00:33:49.333Z,99.90
2018-05-08T00:36:17.779Z,99.90
2018-05-08T00:38:46.249Z,99.80
2018-05-08T00:41:14.746Z,99.90
2018-05-08T00:43:44.186Z,99.90
2018-05-08T00:46:12.642Z,99.90
2018-05-08T00:48:41.102Z,99.90
2018-05-08T00:51:09.547Z,99.90
2018-05-08T00:53:38.176Z,99.90
2018-05-08T00:56:07.435Z,99.90
2018-05-08T00:58:35.932Z,99.90
2018-05-08T01:01:04.395Z,99.90
2018-05-08T01:03:33.638Z,99.90
2018-05-08T01:06:02.859Z,99.90
2018-05-08T01:08:32.082Z,99.90
2018-05-08T01:11:01.323Z,99.90
2018-05-08T01:13:29.831Z,99.90
2018-05-08T01:16:29.956Z,99.90
2018-05-08T01:18:58.420Z,99.90
2018-05-08T01:21:26.835Z,99.90
2018-05-08T01:23:55.318Z,99.90
2018-05-08T01:26:23.747Z,99.90
2018-05-08T01:28:52.228Z,99.90
2018-05-08T01:31:20.712Z,99.90
2018-05-08T01:33:49.184Z,99.90
2018-05-08T01:36:17.614Z,99.90
2018-05-08T01:38:46.843Z,99.90
2018-05-08T01:41:16.035Z,99.90
2018-05-08T01:43:44.497Z,99.90
2018-05-08T01:46:12.977Z,99.90
2018-05-08T01:48:42.208Z,99.90
2018-05-08T01:51:10.721Z,99.90
2018-05-08T01:53:39.475Z,99.90
2018-05-08T01:56:07.922Z,99.90
2018-05-08T01:58:36.421Z,99.90
2018-05-08T02:01:05.687Z,99.90
2018-05-08T02:03:34.138Z,99.90
2018-05-08T02:06:02.635Z,99.90
2018-05-08T02:08:31.131Z,99.90
2018-05-08T02:10:59.817Z,99.90
2018-05-08T02:13:28.293Z,99.90
2018-05-08T02:15:56.739Z,99.90
2018-05-08T02:18:25.245Z,99.90
2018-05-08T02:20:53.660Z,99.90
2018-05-08T02:23:22.119Z,99.90
2018-05-08T02:25:50.592Z,99.90
2018-05-08T02:28:19.078Z,99.90
2018-05-08T02:30:47.553Z,99.90
2018-05-08T02:33:16.025Z,99.90
2018-05-08T02:35:45.233Z,99.90
2018-05-08T02:38:13.699Z,99.90
2018-05-08T02:40:42.144Z,99.90
2018-05-08T02:43:10.606Z,99.90
2018-05-08T02:45:39.044Z,99.90
2018-05-08T02:48:07.543Z,99.90
2018-05-08T02:50:35.987Z,99.90
2018-05-08T02:53:05.216Z,99.90
2018-05-08T02:55:34.398Z,99.90
2018-05-08T02:58:02.883Z,99.90
2018-05-08T03:00:31.357Z,99.90
2018-05-08T03:02:59.803Z,99.90
2018-05-08T03:05:28.259Z,99.90
2018-05-08T03:07:57.605Z,99.90
2018-05-08T03:10:26.024Z,99.90
2018-05-08T03:12:54.478Z,99.90
2018-05-08T03:15:22.910Z,99.90
2018-05-08T03:17:51.345Z,99.90
2018-05-08T03:20:19.744Z,99.90
2018-05-08T03:22:48.205Z,99.90
2018-05-08T03:25:17.436Z,99.90
2018-05-08T03:27:46.675Z,99.90
2018-05-08T03:30:15.172Z,99.90
2018-05-08T03:32:44.429Z,99.90
2018-05-08T03:35:12.892Z,99.90
2018-05-08T03:37:44.110Z,99.90
2018-05-08T03:40:12.572Z,99.90
2018-05-08T03:42:41.042Z,99.90
2018-05-08T03:45:09.466Z,99.90
2018-05-08T03:47:37.901Z,99.90
2018-05-08T03:50:06.306Z,99.90
2018-05-08T03:52:34.778Z,99.90
2018-05-08T03:55:03.225Z,99.90
2018-05-08T03:57:31.911Z,99.90
2018-05-08T04:00:00.350Z,99.90
2018-05-08T04:06:10.210Z,99.90
2018-05-08T04:08:38.684Z,99.90
2018-05-08T04:11:07.778Z,99.90
2018-05-08T04:13:36.285Z,99.90
2018-05-08T04:16:05.513Z,99.90
2018-05-08T04:18:34.040Z,99.90
2018-05-08T04:21:02.531Z,99.90
2018-05-08T04:23:31.722Z,99.90
2018-05-08T04:26:00.193Z,99.90
2018-05-08T04:28:28.661Z,99.90
2018-05-08T04:30:57.928Z,99.90
2018-05-08T04:33:26.410Z,99.90
2018-05-08T04:35:55.614Z,99.90
2018-05-08T04:38:24.131Z,99.90
2018-05-08T04:40:52.824Z,99.90
2018-05-08T04:43:21.361Z,99.90
2018-05-08T04:45:50.045Z,99.90
2018-05-08T04:48:18.531Z,99.90
2018-05-08T04:50:47.014Z,99.90
2018-05-08T04:53:15.473Z,99.90
2018-05-08T04:55:43.926Z,99.90
2018-05-08T04:58:12.424Z,99.90
2018-05-08T05:00:40.913Z,99.90
2018-05-08T05:03:09.418Z,99.90
2018-05-08T05:05:37.934Z,99.90
2018-05-08T05:08:06.390Z,99.90
2018-05-08T05:10:34.886Z,99.90
2018-05-08T05:13:03.669Z,99.90
2018-05-08T05:15:32.127Z,99.90
2018-05-08T05:18:00.592Z,99.90
2018-05-08T05:20:29.009Z,99.90
2018-05-08T05:22:57.491Z,99.90
2018-05-08T05:25:26.025Z,99.90
2018-05-08T05:27:54.468Z,99.90
2018-05-08T05:30:30.631Z,99.90
2018-05-08T05:32:59.848Z,99.90
2018-05-08T05:35:29.326Z,99.90
2018-05-08T05:37:57.814Z,99.90
2018-05-08T05:40:26.236Z,99.90
2018-05-08T05:42:54.700Z,99.90
2018-05-08T05:45:24.143Z,99.90
2018-05-08T05:47:52.606Z,99.90
2018-05-08T05:50:21.022Z,99.90
2018-05-08T05:52:49.463Z,99.90
2018-05-08T05:55:17.897Z,99.90
2018-05-08T05:57:46.351Z,99.90
2018-05-08T06:00:15.532Z,99.90
2018-05-08T06:02:44.002Z,99.90
2018-05-08T06:05:12.416Z,99.90
2018-05-08T06:07:40.897Z,99.90
2018-05-08T06:10:10.129Z,99.90
2018-05-08T06:12:38.714Z,99.90
2018-05-08T06:15:07.918Z,99.90
2018-05-08T06:17:36.435Z,99.90
2018-05-08T06:20:04.852Z,99.90
2018-05-08T06:22:33.321Z,99.90
2018-05-08T06:25:01.761Z,99.90
2018-05-08T06:27:30.232Z,99.90
2018-05-08T06:29:58.650Z,99.90
2018-05-08T06:32:27.102Z,99.90
2018-05-08T06:34:55.542Z,99.90
2018-05-08T06:37:23.992Z,99.90
2018-05-08T06:39:53.174Z,99.90
2018-05-08T06:42:21.624Z,99.90
2018-05-08T06:44:50.824Z,99.90
2018-05-08T06:47:19.293Z,99.90
2018-05-08T06:49:47.721Z,99.90
2018-05-08T06:52:16.170Z,99.90
2018-05-08T06:54:45.370Z,99.90
2018-05-08T06:57:13.797Z,99.90
2018-05-08T06:59:42.968Z,99.90
2018-05-08T07:02:11.380Z,99.90
2018-05-08T07:04:39.886Z,99.90
2018-05-08T07:07:08.329Z,99.90
2018-05-08T07:09:37.534Z,99.90
2018-05-08T07:12:06.027Z,99.90
2018-05-08T07:14:34.467Z,99.90
2018-05-08T07:17:03.692Z,99.90
2018-05-08T07:19:32.925Z,98.80
2018-05-08T07:22:02.121Z,99.20
2018-05-08T07:24:30.631Z,99.30
2018-05-08T07:26:59.329Z,98.90
2018-05-08T07:29:27.784Z,98.60
2018-05-08T07:31:56.203Z,98.00
2018-05-08T07:34:24.901Z,97.10
2018-05-08T07:36:53.603Z,96.80
2018-05-08T07:39:22.091Z,96.10
2018-05-08T07:41:51.533Z,95.90
2018-05-08T07:44:19.981Z,95.90
2018-05-08T07:46:48.420Z,93.20
2018-05-08T07:49:17.649Z,93.50
2018-05-08T07:51:46.132Z,93.50
2018-05-08T07:54:15.328Z,93.40
2018-05-08T07:56:43.769Z,93.50
2018-05-08T07:59:12.229Z,93.80
2018-05-08T08:01:40.873Z,93.50
2018-05-08T08:04:09.316Z,92.00
2018-05-08T08:06:37.724Z,91.30
2018-05-08T08:09:06.167Z,91.30
2018-05-08T08:11:34.588Z,91.50
2018-05-08T08:14:03.061Z,90.50
2018-05-08T08:16:31.490Z,90.40
2018-05-08T08:18:59.977Z,90.20
2018-05-08T08:21:28.404Z,87.90
2018-05-08T08:23:57.739Z,90.30
2018-05-08T08:26:26.150Z,89.30
2018-05-08T08:28:54.613Z,87.70
2018-05-08T08:31:23.055Z,86.60
2018-05-08T08:33:51.511Z,87.80
2018-05-08T08:36:20.179Z,88.20
2018-05-08T08:38:48.618Z,87.10
2018-05-08T08:41:17.058Z,85.20
2018-05-08T08:43:45.496Z,85.60
2018-05-08T08:46:13.926Z,84.90
2018-05-08T08:48:42.375Z,84.50
2018-05-08T08:51:10.845Z,84.00
2018-05-08T08:53:39.343Z,82.60
2018-05-08T08:56:07.858Z,81.80
2018-05-08T08:58:36.254Z,81.90
2018-05-08T09:01:04.665Z,81.70
2018-05-08T09:03:33.118Z,81.70
2018-05-08T09:06:01.529Z,80.00
2018-05-08T09:08:30.002Z,77.80
2018-05-08T09:10:58.440Z,77.90
2018-05-08T09:13:26.930Z,76.90
2018-05-08T09:15:55.420Z,77.70
2018-05-08T09:18:23.894Z,77.60
2018-05-08T09:20:52.351Z,77.90
2018-05-08T09:23:20.845Z,76.70
2018-05-08T09:25:49.267Z,76.60
2018-05-08T09:28:17.706Z,77.60
2018-05-08T09:30:46.894Z,74.70
2018-05-08T09:33:15.330Z,74.60
2018-05-08T09:35:44.582Z,72.10
2018-05-08T09:38:13.052Z,72.40
2018-05-08T09:40:42.356Z,72.40
2018-05-08T09:43:10.833Z,72.40
2018-05-08T09:45:39.267Z,72.30
2018-05-08T09:48:07.725Z,72.20
2018-05-08T09:50:36.169Z,71.50
2018-05-08T09:53:04.659Z,71.00
2018-05-08T09:55:33.124Z,69.30
2018-05-08T09:58:01.646Z,70.90
2018-05-08T10:00:30.923Z,72.40
2018-05-08T10:02:59.435Z,71.40
2018-05-08T10:05:27.896Z,70.70
2018-05-08T10:07:56.381Z,71.10
2018-05-08T10:10:25.651Z,68.80
2018-05-08T10:12:54.363Z,68.80
2018-05-08T10:15:22.801Z,69.20
2018-05-08T10:17:51.315Z,68.10
2018-05-08T10:20:19.759Z,68.00
2018-05-08T10:22:48.222Z,68.70
2018-05-08T10:25:16.713Z,67.30
2018-05-08T10:27:45.946Z,66.30
2018-05-08T10:30:14.365Z,65.30
2018-05-08T10:32:42.806Z,68.70
2018-05-08T10:35:11.250Z,65.60
2018-05-08T10:37:39.699Z,65.30
2018-05-08T10:40:08.926Z,64.70
2018-05-08T10:42:37.450Z,64.80
2018-05-08T10:45:06.619Z,65.00
2018-05-08T10:47:35.122Z,64.90
2018-05-08T10:50:03.563Z,64.60
2018-05-08T10:52:32.059Z,64.40
2018-05-08T10:55:01.312Z,63.40
2018-05-08T10:57:29.884Z,63.40
2018-05-08T10:59:58.713Z,64.70
2018-05-08T11:02:27.251Z,66.30
2018-05-08T11:04:55.705Z,64.30
2018-05-08T11:07:24.932Z,61.80
2018-05-08T11:09:55.089Z,63.50
2018-05-08T11:12:24.341Z,62.50
2018-05-08T11:14:52.774Z,62.40
2018-05-08T11:17:21.227Z,61.40
2018-05-08T11:19:49.767Z,61.70
2018-05-08T11:22:18.201Z,60.10
2018-05-08T11:24:46.727Z,59.80
2018-05-08T11:27:15.203Z,59.70
2018-05-08T11:29:43.677Z,59.70
2018-05-08T11:32:12.936Z,59.40
2018-05-08T11:34:41.382Z,59.50
2018-05-08T11:37:10.629Z,59.60
2018-05-08T11:39:39.098Z,59.60
2018-05-08T11:42:07.593Z,57.50
2018-05-08T11:44:36.520Z,57.30
2018-05-08T11:47:05.041Z,56.70
2018-05-08T11:49:36.272Z,57.50
2018-05-08T11:52:04.876Z,57.50
2018-05-08T11:54:33.423Z,57.90
2018-05-08T11:57:01.965Z,55.40
2018-05-08T11:59:30.489Z,56.50
2018-05-08T12:01:58.967Z,55.20
2018-05-08T12:04:27.439Z,55.70
2018-05-08T12:06:55.896Z,56.40
2018-05-08T12:09:24.321Z,56.10
2018-05-08T12:11:52.775Z,55.70
2018-05-08T12:14:21.225Z,55.70
2018-05-08T12:16:49.690Z,56.60
2018-05-08T12:19:18.211Z,56.90
2018-05-08T12:21:46.728Z,54.10
2018-05-08T12:24:15.172Z,53.70
2018-05-08T12:26:43.623Z,55.00
2018-05-08T12:29:12.081Z,53.80
2018-05-08T12:31:40.591Z,53.50
2018-05-08T12:34:09.059Z,53.20
2018-05-08T12:36:37.533Z,53.20
2018-05-08T12:39:06.893Z,52.60
2018-05-08T12:41:35.375Z,52.20
2018-05-08T12:44:03.867Z,50.50
2018-05-08T12:46:32.288Z,52.90
2018-05-08T12:49:00.817Z,51.90
2018-05-08T12:51:29.316Z,50.90
2018-05-08T12:53:57.743Z,49.10
2018-05-08T12:56:26.229Z,51.30
2018-05-08T12:58:55.170Z,50.00
2018-05-08T13:01:23.613Z,49.20
2018-05-08T13:03:52.050Z,49.50
2018-05-08T13:06:20.488Z,48.90
2018-05-08T13:08:48.956Z,51.90
2018-05-08T13:11:17.398Z,51.00
2018-05-08T13:13:45.900Z,48.90
2018-05-08T13:16:14.423Z,48.30
2018-05-08T13:18:42.902Z,49.00
2018-05-08T13:21:11.470Z,47.90
2018-05-08T13:23:40.738Z,47.90
2018-05-08T13:26:09.249Z,47.90
2018-05-08T13:28:37.761Z,48.20
2018-05-08T13:31:06.304Z,49.40
2018-05-08T13:33:34.822Z,49.10
2018-05-08T13:36:03.300Z,48.40
2018-05-08T13:38:31.780Z,47.80
2018-05-08T13:41:00.227Z,46.80
2018-05-08T13:43:29.430Z,49.30
2018-05-08T13:45:57.918Z,49.30
2018-05-08T13:48:26.636Z,49.50
2018-05-08T13:50:55.121Z,47.50
2018-05-08T13:53:23.583Z,45.20
2018-05-08T13:55:52.058Z,47.90
2018-05-08T13:58:20.528Z,46.40
2018-05-08T14:00:48.975Z,48.20
2018-05-08T14:03:17.408Z,47.80
2018-05-08T14:05:46.750Z,49.30
2018-05-08T14:08:15.190Z,49.20
2018-05-08T14:10:43.640Z,48.70
2018-05-08T14:13:12.842Z,46.30
2018-05-08T14:15:41.286Z,46.10
2018-05-08T14:18:09.743Z,47.60
2018-05-08T14:20:38.192Z,47.50
2018-05-08T14:23:06.678Z,46.50
2018-05-08T14:25:35.128Z,47.20
2018-05-08T14:28:03.844Z,47.10
2018-05-08T14:30:32.377Z,45.40
2018-05-08T14:33:02.058Z,47.30
2018-05-08T14:35:31.756Z,45.90
2018-05-08T14:38:00.336Z,42.60
2018-05-08T14:40:28.797Z,41.10
2018-05-08T14:42:57.246Z,44.70
2018-05-08T14:45:25.726Z,44.00
2018-05-08T14:47:54.179Z,43.10
2018-05-08T14:50:22.626Z,43.70
2018-05-08T14:52:51.098Z,43.80
2018-05-08T14:55:19.924Z,44.00
2018-05-08T14:57:48.414Z,45.50
2018-05-08T15:00:16.870Z,45.50
2018-05-08T15:02:45.332Z,44.00
2018-05-08T15:05:13.772Z,43.90
2018-05-08T15:07:42.253Z,43.10
2018-05-08T15:10:10.689Z,42.90
2018-05-08T15:12:39.147Z,42.90
2018-05-08T15:15:07.603Z,44.10
2018-05-08T15:17:36.057Z,45.30
2018-05-08T15:20:04.749Z,46.90
2018-05-08T15:22:33.314Z,46.20
2018-05-08T15:25:01.854Z,46.20
2018-05-08T15:27:30.342Z,46.00
2018-05-08T15:30:00.496Z,45.50
2018-05-08T15:32:29.038Z,46.10
2018-05-08T15:34:57.778Z,45.30
2018-05-08T15:37:26.284Z,47.00
2018-05-08T15:39:55.470Z,47.60
2018-05-08T15:42:24.051Z,43.70
2018-05-08T15:44:52.495Z,44.00
2018-05-08T15:47:21.833Z,45.20
2018-05-08T15:49:50.419Z,43.50
2018-05-08T15:52:18.905Z,45.40
2018-05-08T15:54:47.383Z,42.60
2018-05-08T15:57:15.846Z,41.80
2018-05-08T15:59:44.373Z,43.00
2018-05-08T16:02:12.918Z,45.60
2018-05-08T16:04:41.469Z,46.70
2018-05-08T16:07:10.004Z,45.90
2018-05-08T16:09:38.547Z,46.40
2018-05-08T16:12:07.093Z,48.30
2018-05-08T16:14:36.247Z,47.70
2018-05-08T16:17:04.768Z,48.10
2018-05-08T16:19:33.714Z,47.50
2018-05-08T16:22:02.189Z,47.90
2018-05-08T16:24:31.629Z,49.20
2018-05-08T16:27:00.182Z,49.10
2018-05-08T16:29:30.376Z,49.90
2018-05-08T16:31:58.886Z,50.10
2018-05-08T16:34:28.259Z,49.40
2018-05-08T16:36:57.493Z,49.50
2018-05-08T16:39:25.988Z,49.40
2018-05-08T16:41:54.787Z,49.90
2018-05-08T16:44:23.288Z,50.10
2018-05-08T16:46:51.742Z,48.90
2018-05-08T16:49:20.279Z,50.30
2018-05-08T16:51:48.812Z,50.90
2018-05-08T16:54:17.339Z,51.30
2018-05-08T16:56:45.849Z,51.30
2018-05-08T16:59:14.341Z,51.10
2018-05-08T17:01:42.890Z,51.10
2018-05-08T17:04:11.382Z,51.40
2018-05-08T17:06:39.967Z,51.70
2018-05-08T17:09:08.609Z,52.00
2018-05-08T17:11:37.148Z,52.40
2018-05-08T17:14:05.581Z,53.70
2018-05-08T17:16:34.118Z,53.30
2018-05-08T17:19:02.959Z,53.50
2018-05-08T17:21:31.473Z,53.20
2018-05-08T17:24:00.454Z,53.30
2018-05-08T17:26:29.481Z,53.30
2018-05-08T17:29:00.024Z,53.80
2018-05-08T17:31:31.170Z,53.60
2018-05-08T17:33:59.756Z,53.40
2018-05-08T17:36:28.258Z,54.00
2018-05-08T17:38:56.718Z,55.10
2018-05-08T17:41:25.312Z,55.40
2018-05-08T17:43:53.824Z,55.20
2018-05-08T17:46:22.287Z,55.60
2018-05-08T17:48:50.765Z,55.50
2018-05-08T17:51:19.791Z,55.50
2018-05-08T17:53:48.282Z,56.30
2018-05-08T17:56:16.761Z,56.80
2018-05-08T17:58:45.231Z,57.20
2018-05-08T18:01:13.678Z,57.60
2018-05-08T18:03:42.341Z,57.40
2018-05-08T18:06:10.847Z,58.10
2018-05-08T18:08:39.322Z,59.00
2018-05-08T18:11:07.788Z,59.10
2018-05-08T18:13:36.250Z,59.30
2018-05-08T18:16:04.752Z,60.00
2018-05-08T18:18:33.411Z,60.40
2018-05-08T18:21:05.639Z,60.80
2018-05-08T18:23:36.199Z,60.70
2018-05-08T18:26:04.759Z,60.90
2018-05-08T18:28:34.615Z,61.80
2018-05-08T18:31:03.221Z,62.40
2018-05-08T18:33:31.797Z,62.80
2018-05-08T18:36:02.075Z,63.40
2018-05-08T18:38:31.946Z,63.50
2018-05-08T18:41:06.765Z,63.20
2018-05-08T18:43:50.499Z,64.10
2018-05-08T18:46:19.918Z,64.50
2018-05-08T18:48:48.715Z,65.90
2018-05-08T18:51:18.784Z,66.40
2018-05-08T18:53:47.433Z,67.00
2018-05-08T19:21:10.021Z,69.00
2018-05-08T20:20:28.526Z,80.90
2018-05-08T20:23:00.145Z,85.00
2018-05-08T20:25:31.082Z,84.90
2018-05-08T20:28:17.159Z,85.40
2018-05-08T20:35:19.526Z,85.70
2018-05-08T20:37:49.176Z,88.00
2018-05-08T20:40:18.241Z,88.80
2018-05-08T20:42:48.796Z,88.90
2018-05-08T20:45:20.653Z,89.00
2018-05-08T20:47:49.118Z,90.40
2018-05-08T20:50:17.914Z,90.40
2018-05-08T20:52:46.404Z,90.70
2018-05-08T20:55:25.060Z,91.20
2018-05-08T20:57:54.696Z,92.30
2018-05-08T21:00:23.797Z,92.30
2018-05-08T21:02:52.487Z,92.40
2018-05-08T21:05:23.413Z,92.80
2018-05-08T21:08:08.532Z,93.10
2018-05-08T21:15:49.943Z,91.80
2018-05-08T21:18:21.436Z,90.30
2018-05-08T21:20:50.701Z,90.50
2018-05-08T21:23:19.434Z,90.90
2018-05-08T21:25:52.053Z,92.40
2018-05-08T21:28:26.455Z,93.40
2018-05-08T21:33:34.211Z,95.20
2018-05-08T21:36:03.690Z,96.10
2018-05-08T21:38:35.486Z,97.20
2018-05-08T21:41:04.036Z,97.90
2018-05-08T21:43:34.318Z,97.50
2018-05-08T21:46:05.489Z,96.50
2018-05-08T21:48:34.035Z,96.50
2018-05-08T21:51:03.276Z,98.10
2018-05-08T21:53:33.992Z,98.10
2018-05-08T21:56:03.922Z,98.10
2018-05-08T21:58:33.868Z,97.80
2018-05-08T22:01:04.028Z,97.50
2018-05-08T22:03:33.297Z,98.40
2018-05-08T22:06:05.012Z,97.70
2018-05-08T22:08:33.566Z,98.00
2018-05-08T22:11:06.135Z,95.80
2018-05-08T22:13:34.744Z,95.90
2018-05-08T22:16:03.634Z,97.60
2018-05-08T22:18:33.414Z,98.40
2018-05-08T22:21:05.039Z,99.50
2018-05-08T22:23:35.511Z,99.50
2018-05-08T22:26:04.006Z,99.90
2018-05-08T22:28:33.090Z,99.80
2018-05-08T22:31:05.250Z,99.90
2018-05-08T22:33:33.809Z,99.40
2018-05-08T22:36:05.595Z,99.10
2018-05-08T22:38:34.143Z,98.10
2018-05-08T22:41:03.854Z,97.50
2018-05-08T22:43:34.223Z,98.00
2018-05-08T22:46:03.646Z,96.80
2018-05-08T22:48:35.205Z,96.70
2018-05-08T22:51:03.819Z,97.20
2018-05-08T22:53:34.139Z,98.50
2018-05-08T22:56:03.977Z,99.90
2018-05-08T22:58:34.410Z,99.90
2018-05-08T23:01:04.291Z,99.90
2018-05-08T23:03:34.147Z,99.90
2018-05-08T23:06:04.499Z,99.90
2018-05-08T23:08:34.439Z,98.70
2018-05-08T23:11:04.381Z,98.60
2018-05-08T23:13:34.762Z,98.40
2018-05-08T23:16:04.473Z,99.70
2018-05-08T23:18:34.653Z,99.90
2018-05-08T23:21:04.398Z,99.90
2018-05-08T23:23:34.286Z,99.90
2018-05-08T23:26:04.708Z,99.90
2018-05-08T23:28:33.999Z,99.90
2018-05-08T23:31:04.832Z,99.90
2018-05-08T23:33:33.563Z,99.90
2018-05-08T23:36:05.135Z,99.90
2018-05-08T23:38:34.778Z,99.90
2018-05-08T23:41:05.165Z,99.90
2018-05-08T23:43:34.419Z,99.90
2018-05-08T23:46:31.110Z,99.90
2018-05-08T23:49:19.624Z,99.90
2018-05-08T23:51:51.536Z,99.90
2018-05-08T23:54:32.179Z,99.90
2018-05-08T23:57:01.510Z,99.90
2018-05-08T23:59:31.286Z,99.90
